createdAt,value
2023-11-25T00:01:07.256Z,1.40
2023-11-25T00:03:35.626Z,1.30
2023-11-25T00:06:04.651Z,1.20
2023-11-25T00:08:33.565Z,1.45
2023-11-25T00:11:01.724Z,1.58
2023-11-25T00:13:29.886Z,1.50
2023-11-25T00:15:59.339Z,1.80
2023-11-25T00:18:27.595Z,1.80
2023-11-25T00:20:55.671Z,1.73
2023-11-25T00:23:23.810Z,1.58
2023-11-25T00:25:54.379Z,1.60
2023-11-25T00:28:22.569Z,1.63
2023-11-25T00:30:50.824Z,1.77
2023-11-25T00:33:20.331Z,1.67
2023-11-25T00:35:49.191Z,1.30
2023-11-25T00:38:17.308Z,1.50
2023-11-25T00:40:45.451Z,1.80
2023-11-25T00:43:14.248Z,1.70
2023-11-25T00:45:43.327Z,1.90
2023-11-25T00:48:11.650Z,1.30
2023-11-25T00:50:41.213Z,1.58
2023-11-25T00:53:09.431Z,2.10
2023-11-25T00:55:37.800Z,2.05
2023-11-25T00:58:07.261Z,1.90
2023-11-25T01:00:35.929Z,1.85
2023-11-25T01:03:04.166Z,2.08
2023-11-25T01:05:32.266Z,2.15
2023-11-25T01:08:01.689Z,1.60
2023-11-25T01:10:29.867Z,1.90
2023-11-25T01:12:57.961Z,1.90
2023-11-25T01:15:26.411Z,1.42
2023-11-25T01:17:54.602Z,1.83
2023-11-25T01:20:23.241Z,1.45
2023-11-25T01:22:51.393Z,1.55
2023-11-25T01:25:21.131Z,1.50
2023-11-25T01:27:49.652Z,1.60
2023-11-25T01:30:17.822Z,1.75
2023-11-25T01:32:45.979Z,1.80
2023-11-25T01:35:14.184Z,1.73
2023-11-25T01:37:42.325Z,1.75
2023-11-25T01:40:13.772Z,1.88
2023-11-25T01:42:43.935Z,1.60
2023-11-25T01:45:13.607Z,1.42
2023-11-25T01:47:43.111Z,1.60
2023-11-25T01:50:12.539Z,1.90
2023-11-25T01:52:41.862Z,1.70
2023-11-25T01:55:11.044Z,1.55
2023-11-25T01:57:39.692Z,2.50
2023-11-25T02:00:11.145Z,2.50
2023-11-25T02:02:44.981Z,1.90
2023-11-25T02:05:13.595Z,1.95
2023-11-25T02:07:42.976Z,1.70
2023-11-25T02:10:12.524Z,1.55
2023-11-25T02:12:40.892Z,1.80
2023-11-25T02:15:12.527Z,1.42
2023-11-25T02:17:43.695Z,1.92
2023-11-25T02:20:14.851Z,1.70
2023-11-25T02:22:44.781Z,1.60
2023-11-25T02:25:16.351Z,1.42
2023-11-25T02:27:44.592Z,1.85
2023-11-25T02:30:14.829Z,1.90
2023-11-25T02:32:43.403Z,1.60
2023-11-25T02:35:15.793Z,1.63
2023-11-25T02:37:45.822Z,1.50
2023-11-25T02:40:17.919Z,1.88
2023-11-25T02:42:48.411Z,1.50
2023-11-25T02:45:20.130Z,1.40
2023-11-25T02:47:48.947Z,1.55
2023-11-25T02:50:17.954Z,1.60
2023-11-25T02:52:47.617Z,1.58
2023-11-25T02:55:17.637Z,1.40
2023-11-25T02:57:48.018Z,1.80
2023-11-25T03:00:29.077Z,1.80
2023-11-25T03:03:09.183Z,1.90
2023-11-25T03:05:39.200Z,2.10
2023-11-25T03:08:11.042Z,2.47
2023-11-25T03:10:43.712Z,3.28
2023-11-25T03:13:12.558Z,2.45
2023-11-25T03:15:41.280Z,2.45
2023-11-25T03:18:11.684Z,2.50
2023-11-25T03:20:41.914Z,3.00
2023-11-25T03:23:10.109Z,3.30
2023-11-25T03:25:40.076Z,3.13
2023-11-25T03:28:11.975Z,4.13
2023-11-25T03:30:41.867Z,3.80
2023-11-25T03:33:10.780Z,3.40
2023-11-25T03:35:39.148Z,3.75
2023-11-25T03:38:07.462Z,3.42
2023-11-25T03:40:35.619Z,3.70
2023-11-25T03:43:03.738Z,3.63
2023-11-25T03:45:33.397Z,4.60
2023-11-25T03:48:01.692Z,4.13
2023-11-25T03:50:30.453Z,5.00
2023-11-25T03:52:58.609Z,4.80
2023-11-25T03:55:26.807Z,5.20
2023-11-25T03:57:54.939Z,5.80
2023-11-25T04:00:23.943Z,5.00
2023-11-25T04:02:54.002Z,5.18
2023-11-25T04:05:23.789Z,4.85
2023-11-25T04:07:51.957Z,4.50
2023-11-25T04:10:20.098Z,4.60
2023-11-25T04:12:50.070Z,4.10
2023-11-25T04:15:21.687Z,4.40
2023-11-25T04:17:51.541Z,4.47
2023-11-25T04:20:25.933Z,4.43
2023-11-25T04:22:54.762Z,4.43
2023-11-25T04:25:23.939Z,4.50
2023-11-25T04:27:52.589Z,4.88
2023-11-25T04:30:20.759Z,3.50
2023-11-25T04:32:50.188Z,4.10
2023-11-25T04:35:20.672Z,3.58
2023-11-25T04:37:48.923Z,3.22
2023-11-25T04:40:19.244Z,3.70
2023-11-25T04:42:47.437Z,3.50
2023-11-25T04:45:18.159Z,3.53
2023-11-25T04:47:47.569Z,4.32
2023-11-25T04:50:16.431Z,3.72
2023-11-25T04:52:46.220Z,3.70
2023-11-25T04:55:16.230Z,3.40
2023-11-25T04:57:45.431Z,3.25
2023-11-25T05:00:16.218Z,3.45
2023-11-25T05:02:44.883Z,3.70
2023-11-25T05:05:14.236Z,3.40
2023-11-25T05:07:42.967Z,3.60
2023-11-25T05:10:13.059Z,3.80
2023-11-25T05:12:42.654Z,3.38
2023-11-25T05:15:11.952Z,3.17
2023-11-25T05:17:40.760Z,4.00
2023-11-25T05:20:16.620Z,3.53
2023-11-25T05:22:44.878Z,3.28
2023-11-25T05:25:16.201Z,3.20
2023-11-25T05:27:44.898Z,3.70
2023-11-25T05:30:14.975Z,3.25
2023-11-25T05:32:44.173Z,3.50
2023-11-25T05:35:13.958Z,3.20
2023-11-25T05:37:44.249Z,3.60
2023-11-25T05:40:15.603Z,3.85
2023-11-25T05:42:49.445Z,3.77
2023-11-25T05:45:19.455Z,4.22
2023-11-25T05:47:47.984Z,3.50
2023-11-25T05:50:21.620Z,3.20
2023-11-25T05:52:50.329Z,4.10
2023-11-25T05:55:21.831Z,3.60
2023-11-25T05:57:51.805Z,4.30
2023-11-25T06:00:21.774Z,5.00
2023-11-25T06:02:49.826Z,4.00
2023-11-25T06:05:18.097Z,5.20
2023-11-25T06:07:46.432Z,4.78
2023-11-25T06:10:14.913Z,5.00
2023-11-25T06:12:44.881Z,4.95
2023-11-25T06:15:14.746Z,4.85
2023-11-25T06:17:43.115Z,4.00
2023-11-25T06:20:12.333Z,4.35
2023-11-25T06:22:42.234Z,4.88
2023-11-25T06:25:11.132Z,4.40
2023-11-25T06:27:39.505Z,4.15
2023-11-25T06:30:10.436Z,4.20
2023-11-25T06:32:38.667Z,3.92
2023-11-25T06:35:07.808Z,3.53
2023-11-25T06:37:37.297Z,3.03
2023-11-25T06:40:07.297Z,2.80
2023-11-25T06:42:35.393Z,3.40
2023-11-25T06:45:04.518Z,3.30
2023-11-25T06:47:34.140Z,2.90
2023-11-25T06:50:02.349Z,3.38
2023-11-25T06:52:30.477Z,3.53
2023-11-25T06:55:00.289Z,2.97
2023-11-25T06:57:28.608Z,3.37
2023-11-25T06:59:57.663Z,2.60
2023-11-25T07:02:28.119Z,3.10
2023-11-25T07:04:57.696Z,2.80
2023-11-25T07:07:26.165Z,2.58
2023-11-25T07:09:54.234Z,2.92
2023-11-25T07:12:22.289Z,4.80
2023-11-25T07:14:50.669Z,4.47
2023-11-25T07:17:18.912Z,4.07
2023-11-25T07:19:47.133Z,3.20
2023-11-25T07:22:16.724Z,3.53
2023-11-25T07:24:47.639Z,3.08
2023-11-25T07:27:19.508Z,3.60
2023-11-25T07:29:47.866Z,3.07
2023-11-25T07:32:17.082Z,2.70
2023-11-25T07:34:45.711Z,2.50
2023-11-25T07:37:13.920Z,2.63
2023-11-25T07:39:43.636Z,2.22
2023-11-25T07:42:11.846Z,1.85
2023-11-25T07:44:39.924Z,1.90
2023-11-25T07:47:08.365Z,2.08
2023-11-25T07:49:37.864Z,1.70
2023-11-25T07:52:06.470Z,1.67
2023-11-25T07:54:34.521Z,2.30
2023-11-25T07:57:04.975Z,2.30
2023-11-25T07:59:33.048Z,3.03
2023-11-25T08:02:01.194Z,2.33
2023-11-25T08:04:29.380Z,2.30
2023-11-25T08:06:57.440Z,1.80
2023-11-25T08:09:25.735Z,1.70
2023-11-25T08:11:54.413Z,1.73
2023-11-25T08:14:23.853Z,2.25
2023-11-25T08:16:52.620Z,1.73
2023-11-25T08:19:22.458Z,2.40
2023-11-25T08:21:50.760Z,2.60
2023-11-25T08:24:19.797Z,2.17
2023-11-25T08:26:48.348Z,1.95
2023-11-25T08:29:16.866Z,1.80
2023-11-25T08:31:46.387Z,1.93
2023-11-25T08:34:15.214Z,2.40
2023-11-25T08:36:54.331Z,2.10
2023-11-25T08:39:26.566Z,2.50
2023-11-25T08:41:56.230Z,1.98
2023-11-25T08:44:24.375Z,2.10
2023-11-25T08:46:54.794Z,2.20
2023-11-25T08:49:25.295Z,2.55
2023-11-25T08:51:53.542Z,2.20
2023-11-25T08:54:22.034Z,2.40
2023-11-25T08:56:52.342Z,2.70
2023-11-25T08:59:21.892Z,2.60
2023-11-25T09:01:52.695Z,4.65
2023-11-25T09:04:23.681Z,2.30
2023-11-25T09:06:52.559Z,2.30
2023-11-25T09:09:22.396Z,2.30
2023-11-25T09:11:50.509Z,2.30
2023-11-25T09:14:20.097Z,2.25
2023-11-25T09:16:48.594Z,2.60
2023-11-25T09:19:16.758Z,2.28
2023-11-25T09:21:46.764Z,2.40
2023-11-25T09:24:14.880Z,1.95
2023-11-25T09:26:42.994Z,2.30
2023-11-25T09:29:11.757Z,2.20
2023-11-25T09:31:39.919Z,1.60
2023-11-25T09:34:09.539Z,2.30
2023-11-25T09:36:37.706Z,2.00
2023-11-25T09:39:10.842Z,2.30
2023-11-25T09:41:39.172Z,2.30
2023-11-25T09:44:09.495Z,2.40
2023-11-25T09:46:38.058Z,2.70
2023-11-25T09:49:06.318Z,2.20
2023-11-25T09:51:34.960Z,2.75
2023-11-25T09:54:09.271Z,3.05
2023-11-25T09:56:38.173Z,2.03
2023-11-25T09:59:08.333Z,2.20
2023-11-25T10:01:37.931Z,2.60
2023-11-25T10:04:09.305Z,2.45
2023-11-25T10:06:38.254Z,2.10
2023-11-25T10:09:10.989Z,2.00
2023-11-25T10:11:43.726Z,2.08
2023-11-25T10:14:14.474Z,2.10
2023-11-25T10:16:47.140Z,2.60
2023-11-25T10:19:22.755Z,2.03
2023-11-25T10:21:51.698Z,1.73
2023-11-25T10:24:22.287Z,2.08
2023-11-25T10:26:52.227Z,2.38
2023-11-25T10:29:21.717Z,2.00
2023-11-25T10:31:56.487Z,2.35
2023-11-25T10:34:25.787Z,2.20
2023-11-25T10:36:54.326Z,1.40
2023-11-25T10:39:27.704Z,1.40
2023-11-25T10:41:55.965Z,1.85
2023-11-25T10:44:25.291Z,1.65
2023-11-25T10:46:57.255Z,1.80
2023-11-25T10:49:26.032Z,2.20
2023-11-25T10:51:54.790Z,2.00
2023-11-25T10:54:27.584Z,1.70
2023-11-25T10:56:56.914Z,2.08
2023-11-25T10:59:28.642Z,1.73
2023-11-25T11:02:00.550Z,2.53
2023-11-25T11:04:34.538Z,2.20
2023-11-25T11:07:06.064Z,1.60
2023-11-25T11:09:38.595Z,2.00
2023-11-25T11:12:09.021Z,1.70
2023-11-25T11:14:42.550Z,1.42
2023-11-25T11:17:19.357Z,1.70
2023-11-25T11:19:52.980Z,1.70
2023-11-25T11:22:23.612Z,1.70
2023-11-25T11:25:10.080Z,1.55
2023-11-25T11:27:46.942Z,1.95
2023-11-25T11:30:22.253Z,1.50
2023-11-25T11:32:50.938Z,1.57
2023-11-25T11:35:22.263Z,2.17
2023-11-25T11:37:51.174Z,1.70
2023-11-25T11:40:23.928Z,1.90
2023-11-25T11:42:52.114Z,2.00
2023-11-25T11:45:23.915Z,2.50
2023-11-25T11:47:54.254Z,2.08
2023-11-25T11:50:24.190Z,2.00
2023-11-25T11:53:14.837Z,1.50
2023-11-25T11:55:51.123Z,13.82
2023-11-25T11:58:20.279Z,6.72
2023-11-25T12:00:49.626Z,8.07
2023-11-25T12:03:19.056Z,4.67
2023-11-25T12:05:47.499Z,2.80
2023-11-25T12:08:16.671Z,2.40
2023-11-25T12:10:46.188Z,2.03
2023-11-25T12:13:14.500Z,2.10
2023-11-25T12:15:42.651Z,1.70
2023-11-25T12:18:12.834Z,1.80
2023-11-25T12:20:41.503Z,1.70
2023-11-25T12:23:10.344Z,2.17
2023-11-25T12:25:38.640Z,2.13
2023-11-25T12:28:09.628Z,2.50
2023-11-25T12:30:38.615Z,2.38
2023-11-25T12:33:08.150Z,2.13
2023-11-25T12:35:36.917Z,2.10
2023-11-25T12:38:14.392Z,1.60
2023-11-25T12:40:46.078Z,1.60
2023-11-25T12:43:17.300Z,1.80
2023-11-25T12:45:47.939Z,1.57
2023-11-25T12:48:21.874Z,2.20
2023-11-25T12:51:04.698Z,2.07
2023-11-25T12:53:33.228Z,1.80
2023-11-25T12:56:01.617Z,2.08
2023-11-25T12:58:32.395Z,1.60
2023-11-25T13:01:01.320Z,1.80
2023-11-25T13:03:32.652Z,1.40
2023-11-25T13:06:01.946Z,1.33
2023-11-25T13:08:32.921Z,1.70
2023-11-25T13:11:04.832Z,1.70
2023-11-25T13:13:35.466Z,1.50
2023-11-25T13:16:06.232Z,1.60
2023-11-25T13:18:34.472Z,1.98
2023-11-25T13:21:07.758Z,1.48
2023-11-25T13:23:36.160Z,1.60
2023-11-25T13:26:04.336Z,1.50
2023-11-25T13:28:33.951Z,1.60
2023-11-25T13:31:02.144Z,1.48
2023-11-25T13:33:30.442Z,2.30
2023-11-25T13:35:58.585Z,1.60
2023-11-25T13:38:26.848Z,1.88
2023-11-25T13:40:55.026Z,1.60
2023-11-25T13:43:23.111Z,1.45
2023-11-25T13:45:52.816Z,1.83
2023-11-25T13:48:20.882Z,1.50
2023-11-25T13:50:49.115Z,1.90
2023-11-25T13:53:19.423Z,1.70
2023-11-25T13:55:49.847Z,1.80
2023-11-25T13:58:18.284Z,2.10
2023-11-25T14:00:46.665Z,1.80
2023-11-25T14:03:17.147Z,1.50
2023-11-25T14:05:47.103Z,2.10
2023-11-25T14:08:18.626Z,2.05
2023-11-25T14:10:46.841Z,1.97
2023-11-25T14:13:16.919Z,1.50
2023-11-25T14:15:45.097Z,2.40
2023-11-25T14:18:13.235Z,1.65
2023-11-25T14:20:43.338Z,1.40
2023-11-25T14:23:11.909Z,1.90
2023-11-25T14:25:41.872Z,1.63
2023-11-25T14:28:11.273Z,1.30
2023-11-25T14:30:39.617Z,2.00
2023-11-25T14:33:07.721Z,1.42
2023-11-25T14:35:37.225Z,1.10
2023-11-25T14:38:07.781Z,1.50
2023-11-25T14:40:39.631Z,1.73
2023-11-25T14:43:08.932Z,2.05
2023-11-25T14:45:37.162Z,2.00
2023-11-25T14:48:06.292Z,2.05
2023-11-25T14:50:39.266Z,1.20
2023-11-25T14:53:09.060Z,1.30
2023-11-25T14:55:37.307Z,1.30
2023-11-25T14:58:05.515Z,1.30
2023-11-25T15:00:33.856Z,1.20
2023-11-25T15:03:02.006Z,2.90
2023-11-25T15:05:30.409Z,3.13
2023-11-25T15:07:58.635Z,2.00
2023-11-25T15:10:28.113Z,1.20
2023-11-25T15:12:57.167Z,0.90
2023-11-25T15:15:26.173Z,2.08
2023-11-25T15:17:54.342Z,3.35
2023-11-25T15:20:23.407Z,5.05
2023-11-25T15:22:52.337Z,4.50
2023-11-25T15:25:22.055Z,6.57
2023-11-25T15:27:51.579Z,5.45
2023-11-25T15:30:19.664Z,2.70
2023-11-25T15:32:47.946Z,1.70
2023-11-25T15:35:16.385Z,1.08
2023-11-25T15:37:47.429Z,1.30
2023-11-25T15:40:15.644Z,1.20
2023-11-25T15:42:45.880Z,2.00
2023-11-25T15:45:16.710Z,1.40
2023-11-25T15:47:44.873Z,2.50
2023-11-25T15:50:13.338Z,1.40
2023-11-25T15:53:05.958Z,2.65
2023-11-25T15:59:43.664Z,1.20
2023-11-25T16:02:13.268Z,1.23
2023-11-25T16:04:41.481Z,1.40
2023-11-25T16:07:11.984Z,1.40
2023-11-25T16:09:42.216Z,1.80
2023-11-25T16:12:12.155Z,2.33
2023-11-25T16:14:40.346Z,2.00
2023-11-25T16:17:08.486Z,1.20
2023-11-25T16:19:38.785Z,1.70
2023-11-25T16:22:07.143Z,2.15
2023-11-25T16:24:35.671Z,2.20
2023-11-25T16:27:04.201Z,2.50
2023-11-25T16:29:32.298Z,1.70
2023-11-25T16:32:00.396Z,1.70
2023-11-25T16:34:28.681Z,2.10
2023-11-25T16:36:58.117Z,2.50
2023-11-25T16:39:29.045Z,3.90
2023-11-25T16:41:59.020Z,2.20
2023-11-25T16:44:27.267Z,2.80
2023-11-25T16:46:55.377Z,2.90
2023-11-25T16:49:23.442Z,2.78
2023-11-25T16:51:53.424Z,1.70
2023-11-25T16:54:22.886Z,2.10
2023-11-25T16:56:50.983Z,2.00
2023-11-25T16:59:20.039Z,1.88
2023-11-25T17:01:48.309Z,1.50
2023-11-25T17:04:16.849Z,2.53
2023-11-25T17:06:45.751Z,1.90
2023-11-25T17:09:13.830Z,1.50
2023-11-25T17:11:43.308Z,2.00
2023-11-25T17:14:11.372Z,2.40
2023-11-25T17:16:39.605Z,2.05
2023-11-25T17:19:07.725Z,2.08
2023-11-25T17:21:35.772Z,1.90
2023-11-25T17:24:05.006Z,1.70
2023-11-25T17:26:33.097Z,1.80
2023-11-25T17:29:02.523Z,1.95
2023-11-25T17:31:30.660Z,1.80
2023-11-25T17:33:58.662Z,2.17
2023-11-25T17:36:26.925Z,1.38
2023-11-25T17:38:55.048Z,1.67
2023-11-25T17:41:22.111Z,1.70
2023-11-25T17:43:50.511Z,2.20
2023-11-25T17:46:20.077Z,4.13
2023-11-25T17:48:48.235Z,4.10
2023-11-25T17:51:16.317Z,8.05
2023-11-25T17:53:44.429Z,4.43
2023-11-25T17:56:12.509Z,3.90
2023-11-25T17:58:40.602Z,5.10
2023-11-25T18:01:08.962Z,10.52
2023-11-25T18:03:38.473Z,6.40
2023-11-25T18:06:06.944Z,4.80
2023-11-25T18:08:34.973Z,4.53
2023-11-25T18:11:03.100Z,4.27
2023-11-25T18:13:31.162Z,5.23
2023-11-25T18:15:59.538Z,4.53
2023-11-25T18:18:27.647Z,4.25
2023-11-25T18:20:57.582Z,4.75
2023-11-25T18:23:25.655Z,4.00
2023-11-25T18:25:53.738Z,4.70
2023-11-25T18:28:21.855Z,5.28
2023-11-25T18:30:50.488Z,5.13
2023-11-25T18:33:18.768Z,5.93
2023-11-25T18:35:46.839Z,5.80
2023-11-25T18:38:16.394Z,4.88
2023-11-25T18:40:44.677Z,5.78
2023-11-25T18:43:12.781Z,7.93
2023-11-25T18:45:40.970Z,8.90
2023-11-25T18:48:09.087Z,16.17
2023-11-25T18:50:37.256Z,15.00
2023-11-25T18:53:05.680Z,12.88
2023-11-25T18:55:35.752Z,10.35
2023-11-25T18:58:04.996Z,8.68
2023-11-25T19:00:33.197Z,5.82
2023-11-25T19:03:01.706Z,5.50
2023-11-25T19:05:30.323Z,4.90
2023-11-25T19:07:58.395Z,5.15
2023-11-25T19:10:26.461Z,5.30
2023-11-25T19:12:56.264Z,5.22
2023-11-25T19:15:24.342Z,5.50
2023-11-25T19:17:52.532Z,5.88
2023-11-25T19:20:20.778Z,5.80
2023-11-25T19:22:48.991Z,6.90
2023-11-25T19:25:17.171Z,7.40
2023-11-25T19:27:45.254Z,8.10
2023-11-25T19:30:16.470Z,7.87
2023-11-25T19:32:44.559Z,6.60
2023-11-25T19:35:13.324Z,5.40
2023-11-25T19:37:41.721Z,8.32
2023-11-25T19:40:11.817Z,6.22
2023-11-25T19:42:40.092Z,6.90
2023-11-25T19:45:09.106Z,6.18
2023-11-25T19:47:39.535Z,5.63
2023-11-25T19:50:09.498Z,6.00
2023-11-25T19:52:39.361Z,5.38
2023-11-25T19:55:08.270Z,5.18
2023-11-25T19:57:37.438Z,4.90
2023-11-25T20:00:07.970Z,5.53
2023-11-25T20:02:41.169Z,5.15
2023-11-25T20:05:10.044Z,5.00
2023-11-25T20:07:38.201Z,5.70
2023-11-25T20:10:07.664Z,5.90
2023-11-25T20:12:35.761Z,6.70
2023-11-25T20:15:05.262Z,6.95
2023-11-25T20:17:33.444Z,6.68
2023-11-25T20:20:04.105Z,8.00
2023-11-25T20:22:32.262Z,7.40
2023-11-25T20:25:00.989Z,8.03
2023-11-25T20:27:29.106Z,7.95
2023-11-25T20:29:58.854Z,7.43
2023-11-25T20:32:27.083Z,6.60
2023-11-25T20:34:55.249Z,6.50
2023-11-25T20:37:24.677Z,6.05
2023-11-25T20:39:53.014Z,6.80
2023-11-25T20:42:21.124Z,6.20
2023-11-25T20:44:49.194Z,7.10
2023-11-25T20:47:17.349Z,6.45
2023-11-25T20:49:47.380Z,6.30
2023-11-25T20:52:15.705Z,6.10
2023-11-25T20:54:45.724Z,5.70
2023-11-25T20:57:15.335Z,6.20
2023-11-25T20:59:43.535Z,5.40
2023-11-25T21:02:11.998Z,6.03
2023-11-25T21:04:40.174Z,5.65
2023-11-25T21:07:09.000Z,5.97
2023-11-25T21:09:37.065Z,6.18
2023-11-25T21:12:07.352Z,6.40
2023-11-25T21:14:35.448Z,8.23
2023-11-25T21:17:04.992Z,8.18
2023-11-25T21:19:33.158Z,8.20
2023-11-25T21:22:01.386Z,8.07
2023-11-25T21:24:29.547Z,8.93
2023-11-25T21:26:57.739Z,8.52
2023-11-25T21:29:27.124Z,7.90
2023-11-25T21:31:55.218Z,7.80
2023-11-25T21:34:23.480Z,7.60
2023-11-25T21:36:51.633Z,6.57
2023-11-25T21:39:19.922Z,6.80
2023-11-25T21:41:47.992Z,6.78
2023-11-25T21:44:16.408Z,6.88
2023-11-25T21:46:46.052Z,7.10
2023-11-25T21:49:14.165Z,7.32
2023-11-25T21:51:42.296Z,7.25
2023-11-25T21:54:10.376Z,6.80
2023-11-25T21:56:38.511Z,7.05
2023-11-25T21:59:06.643Z,7.43
2023-11-25T22:01:34.779Z,8.30
2023-11-25T22:04:05.830Z,8.38
2023-11-25T22:06:34.115Z,8.10
2023-11-25T22:09:04.178Z,8.05
2023-11-25T22:11:37.052Z,7.10
2023-11-25T22:14:05.273Z,7.18
2023-11-25T22:16:33.360Z,6.50
2023-11-25T22:19:01.425Z,6.63
2023-11-25T22:21:31.087Z,6.10
2023-11-25T22:23:59.264Z,5.43
2023-11-25T22:26:33.946Z,5.40
2023-11-25T22:29:03.674Z,6.43
2023-11-25T22:31:32.154Z,5.72
2023-11-25T22:34:00.884Z,6.03
2023-11-25T22:36:31.832Z,5.97
2023-11-25T22:38:59.948Z,5.50
2023-11-25T22:41:28.022Z,5.63
2023-11-25T22:43:56.146Z,6.00
2023-11-25T22:46:25.357Z,6.00
2023-11-25T22:48:54.170Z,5.22
2023-11-25T22:51:24.835Z,6.00
2023-11-25T22:53:54.948Z,5.70
2023-11-25T22:56:23.075Z,6.07
2023-11-25T22:58:51.232Z,6.30
2023-11-25T23:01:28.157Z,5.28
2023-11-25T23:03:56.777Z,5.32
2023-11-25T23:06:25.098Z,5.15
2023-11-25T23:08:54.593Z,5.50
2023-11-25T23:11:23.359Z,5.30
2023-11-25T23:13:51.645Z,6.27
2023-11-25T23:16:19.772Z,10.23
2023-11-25T23:18:47.838Z,10.98
2023-11-25T23:21:15.918Z,11.60
2023-11-25T23:23:48.488Z,10.63
2023-11-25T23:26:18.658Z,9.50
2023-11-25T23:28:46.940Z,7.80
2023-11-25T23:31:15.529Z,7.45
2023-11-25T23:33:43.671Z,6.38
2023-11-25T23:36:11.857Z,6.32
2023-11-25T23:38:39.926Z,6.28
2023-11-25T23:41:08.478Z,6.40
2023-11-25T23:43:38.024Z,6.03
2023-11-25T23:46:07.022Z,6.00
2023-11-25T23:48:36.492Z,5.80
2023-11-25T23:51:04.998Z,5.15
2023-11-25T23:53:33.031Z,5.60
2023-11-25T23:56:01.198Z,5.90
2023-11-25T23:58:29.310Z,5.80
